Time;durP1;ratioP1;P1;durP2;ratioP2;P2;SDS_P1;SDS_P2;PMS_P1;PMS_P2;Temp;Humidity;BMP_temperature;BMP_pressure;BME280_temperature;BME280_humidity;BME280_pressure;Samples;Min_cycle;Max_cycle;Signal;HPM_P1;HPM_P2
2022/03/05 00:09:29;;;;;;;2.47;1.30;;;8.20;64.00;;;;;;20797194;28;20095;-75
2022/03/05 00:19:29;;;;;;;1.63;0.88;;;8.20;63.90;;;;;;20812640;28;20044;-75
2022/03/05 00:29:30;;;;;;;2.35;1.10;;;8.10;63.80;;;;;;20795033;28;20090;-75
2022/03/05 00:39:31;;;;;;;3.28;1.17;;;8.10;63.70;;;;;;20811150;28;20043;-75
2022/03/05 00:49:32;;;;;;;2.67;1.00;;;8.20;63.80;;;;;;20811937;28;20112;-75
2022/03/05 00:59:32;;;;;;;2.67;1.20;;;8.20;63.70;;;;;;20810102;28;20065;-76
2022/03/05 01:09:33;;;;;;;3.47;1.27;;;8.10;63.70;;;;;;20809965;28;20068;-77
2022/03/05 01:19:34;;;;;;;2.90;1.25;;;8.10;63.70;;;;;;20808938;28;20061;-75
2022/03/05 01:29:34;;;;;;;2.70;1.40;;;8.10;63.60;;;;;;20803163;28;20171;-76
2022/03/05 01:39:35;;;;;;;1.65;1.00;;;8.10;63.60;;;;;;20807630;28;20038;-75
2022/03/05 01:49:35;;;;;;;2.40;0.95;;;8.10;63.60;;;;;;20790776;28;20085;-75
2022/03/05 01:59:36;;;;;;;1.95;0.98;;;8.10;63.60;;;;;;20790009;28;20031;-75
2022/03/05 02:09:37;;;;;;;3.20;1.40;;;8.10;63.60;;;;;;20789539;28;20049;-76
2022/03/05 02:19:37;;;;;;;4.65;1.10;;;8.10;63.60;;;;;;20819926;28;20458;-75
2022/03/05 02:29:38;;;;;;;1.17;0.68;;;8.20;63.60;;;;;;20822366;28;20362;-76
2022/03/05 02:39:39;;;;;;;1.40;0.70;;;8.10;63.60;;;;;;20820351;28;20375;-76
2022/03/05 02:49:39;;;;;;;1.95;1.13;;;8.10;63.50;;;;;;20803327;28;20034;-76
2022/03/05 02:59:40;;;;;;;2.30;1.23;;;8.10;63.50;;;;;;20803220;28;20068;-76
2022/03/05 03:09:41;;;;;;;2.45;1.17;;;8.10;63.40;;;;;;20802158;28;20401;-76
2022/03/05 03:19:41;;;;;;;2.53;1.13;;;8.10;63.40;;;;;;20801043;28;20516;-76
2022/03/05 03:29:42;;;;;;;1.50;0.90;;;8.10;63.40;;;;;;20799783;28;20068;-75
2022/03/05 03:39:43;;;;;;;1.73;1.13;;;8.10;63.40;;;;;;20814672;28;20453;-75
2022/03/05 03:49:44;;;;;;;3.25;1.27;;;8.10;63.40;;;;;;20796356;28;20046;-76
2022/03/05 03:59:47;;;;;;;1.80;1.05;;;8.10;63.30;;;;;;20814264;28;20118;-75
2022/03/05 04:09:47;;;;;;;2.92;1.20;;;8.10;63.30;;;;;;20797808;28;20048;-75
2022/03/05 04:19:48;;;;;;;2.55;0.70;;;8.00;63.30;;;;;;20796397;28;20037;-76
2022/03/05 04:29:48;;;;;;;2.25;1.08;;;8.00;63.20;;;;;;20796012;28;20084;-76
2022/03/05 04:39:49;;;;;;;2.92;1.50;;;8.00;63.20;;;;;;20794775;28;20030;-76
2022/03/05 04:49:49;;;;;;;3.20;1.20;;;8.00;63.20;;;;;;20810532;28;20131;-76
2022/03/05 04:59:51;;;;;;;2.50;0.98;;;8.00;63.20;;;;;;20794651;28;20037;-75
2022/03/05 05:09:51;;;;;;;3.50;1.30;;;8.00;63.20;;;;;;20792686;28;20048;-75
2022/03/05 05:19:52;;;;;;;2.63;1.17;;;8.10;63.10;;;;;;20792502;28;20037;-76
2022/03/05 05:29:53;;;;;;;1.33;0.80;;;8.30;62.60;;;;;;20792451;28;20037;-75
2022/03/05 05:39:53;;;;;;;2.58;1.20;;;8.60;61.90;;;;;;20807643;28;20551;-75
2022/03/05 05:49:54;;;;;;;2.00;1.17;;;9.00;61.00;;;;;;20789825;28;20173;-76
2022/03/05 05:59:54;;;;;;;1.63;0.95;;;9.30;60.10;;;;;;20801419;28;20045;-76
2022/03/05 06:09:55;;;;;;;1.67;1.10;;;9.50;59.50;;;;;;20789816;28;20053;-77
2022/03/05 06:19:57;;;;;;;2.15;1.15;;;9.50;59.10;;;;;;20806118;28;20044;-76
2022/03/05 06:29:57;;;;;;;1.70;1.05;;;9.50;59.00;;;;;;20805629;28;20449;-76
2022/03/05 06:39:58;;;;;;;1.48;0.95;;;9.20;59.30;;;;;;20805964;28;20180;-76
2022/03/05 06:49:59;;;;;;;2.95;1.08;;;9.00;59.70;;;;;;20804780;28;20183;-75
2022/03/05 06:59:59;;;;;;;2.53;0.90;;;8.70;60.20;;;;;;20791529;28;20508;-75
2022/03/05 07:10:00;;;;;;;1.63;1.08;;;8.60;60.70;;;;;;20802125;28;20042;-75
2022/03/05 07:20:01;;;;;;;1.80;0.80;;;8.40;61.00;;;;;;20816677;28;20033;-77
2022/03/05 07:30:02;;;;;;;1.58;0.90;;;8.40;61.40;;;;;;20817541;28;20292;-78
2022/03/05 07:40:03;;;;;;;5.03;1.10;;;8.30;61.70;;;;;;20795212;28;20075;-76
2022/03/05 07:50:04;;;;;;;2.53;1.00;;;8.30;62.00;;;;;;20790078;28;20136;-80
2022/03/05 08:00:06;;;;;;;2.67;1.00;;;8.20;62.20;;;;;;20813302;28;20124;-75
2022/03/05 08:10:12;;;;;;;1.70;0.82;;;8.20;62.40;;;;;;20791647;28;20037;-76
2022/03/05 08:20:13;;;;;;;1.52;0.77;;;8.10;62.70;;;;;;20791890;28;20039;-76
2022/03/05 08:30:14;;;;;;;1.35;0.80;;;8.10;62.90;;;;;;20795981;28;20049;-74
2022/03/05 08:40:15;;;;;;;2.40;1.08;;;8.10;63.00;;;;;;20808116;28;20083;-76
2022/03/05 08:50:15;;;;;;;2.90;0.98;;;8.10;63.20;;;;;;20810202;28;20037;-76
2022/03/05 09:00:16;;;;;;;1.27;0.80;;;8.10;63.20;;;;;;20809510;28;20029;-78
2022/03/05 09:10:17;;;;;;;2.10;0.90;;;8.10;63.30;;;;;;20780537;28;20125;-76
2022/03/05 09:20:18;;;;;;;4.55;0.77;;;8.10;63.40;;;;;;20799737;28;20121;-75
2022/03/05 09:30:18;;;;;;;2.17;0.80;;;8.20;63.40;;;;;;20791276;28;20053;-76
2022/03/05 09:40:20;;;;;;;2.03;1.00;;;8.20;63.60;;;;;;20807467;28;20065;-76
2022/03/05 09:50:21;;;;;;;1.77;0.68;;;8.20;63.40;;;;;;20790684;28;20284;-77
2022/03/05 10:00:21;;;;;;;6.22;1.45;;;8.20;63.60;;;;;;20790204;28;20041;-80
2022/03/05 10:10:22;;;;;;;2.10;1.08;;;8.20;63.60;;;;;;20788153;28;20038;-78
2022/03/05 10:20:30;;;;;;;3.00;1.33;;;8.20;63.50;;;;;;20806696;28;20088;-80
2022/03/05 10:30:32;;;;;;;2.33;1.13;;;8.20;63.50;;;;;;20805822;28;20048;-78
2022/03/05 10:40:34;;;;;;;1.80;0.80;;;8.20;63.60;;;;;;20822316;28;20037;-79
2022/03/05 10:50:35;;;;;;;1.35;0.88;;;8.20;63.80;;;;;;20821655;28;20432;-78
2022/03/05 11:00:35;;;;;;;2.08;0.88;;;8.20;63.90;;;;;;20821490;28;20034;-76
2022/03/05 11:10:36;;;;;;;3.20;0.63;;;8.20;63.80;;;;;;20805223;28;20033;-78
2022/03/05 11:20:37;;;;;;;2.22;0.77;;;8.20;63.90;;;;;;20807714;28;20083;-75
2022/03/05 11:30:41;;;;;;;0.52;0.50;;;8.20;64.10;;;;;;21227272;22;20167;-71
2022/03/05 11:40:42;;;;;;;2.40;0.70;;;8.20;64.20;;;;;;20900274;28;20082;-80
2022/03/05 11:50:52;;;;;;;1.80;0.98;;;8.20;64.40;;;;;;20865881;28;20029;-74
2022/03/05 12:00:54;;;;;;;1.77;0.80;;;8.20;64.50;;;;;;20900132;28;20041;-76
2022/03/05 12:11:08;;;;;;;0.98;0.77;;;8.20;64.60;;;;;;20862263;28;20020;-78
2022/03/05 12:21:08;;;;;;;2.90;0.85;;;8.30;64.60;;;;;;20894163;28;20037;-78
2022/03/05 12:31:17;;;;;;;2.35;0.80;;;8.40;64.60;;;;;;20892078;28;20128;-83
2022/03/05 12:41:20;;;;;;;2.83;0.95;;;8.30;64.70;;;;;;20842144;28;20072;-81
2022/03/05 12:51:22;;;;;;;1.40;0.55;;;8.30;64.60;;;;;;20867156;28;20428;-83
2022/03/05 13:01:22;;;;;;;1.17;0.77;;;8.40;64.60;;;;;;20879882;28;20076;-83
2022/03/05 13:11:27;;;;;;;4.40;1.20;;;8.30;64.60;;;;;;20863533;28;20441;-83
2022/03/05 13:21:27;;;;;;;2.92;0.57;;;8.30;64.60;;;;;;20896310;28;20041;-80
2022/03/05 13:31:28;;;;;;;5.15;1.58;;;8.40;64.70;;;;;;20862576;28;20044;-79
2022/03/05 13:41:30;;;;;;;3.25;1.00;;;8.40;64.40;;;;;;20859590;28;20037;-79
2022/03/05 13:51:34;;;;;;;1.98;0.70;;;8.40;64.20;;;;;;20874912;28;20152;-77
2022/03/05 14:01:39;;;;;;;5.07;1.52;;;8.30;64.30;;;;;;20892404;28;20036;-77
2022/03/05 14:11:43;;;;;;;3.90;1.00;;;8.40;64.40;;;;;;20951974;28;20455;-79
2022/03/05 14:21:43;;;;;;;2.05;1.20;;;8.40;64.40;;;;;;20965122;28;20086;-80
2022/03/05 14:31:44;;;;;;;4.97;1.13;;;8.40;64.50;;;;;;20973062;28;20041;-80
2022/03/05 14:41:44;;;;;;;2.05;1.00;;;8.40;64.30;;;;;;20972564;28;20047;-80
2022/03/05 14:51:47;;;;;;;1.52;1.15;;;8.50;64.20;;;;;;20959577;28;20639;-78
2022/03/05 15:01:48;;;;;;;1.90;1.08;;;8.50;64.20;;;;;;20906922;28;20037;-79
2022/03/05 15:11:48;;;;;;;1.77;0.90;;;8.50;64.30;;;;;;20898001;28;20171;-76
2022/03/05 15:21:49;;;;;;;2.25;0.95;;;8.50;64.30;;;;;;20900576;28;20043;-77
2022/03/05 15:31:49;;;;;;;2.30;1.15;;;8.50;64.30;;;;;;20852855;28;20037;-81
2022/03/05 15:41:50;;;;;;;3.13;1.10;;;8.50;64.40;;;;;;20867862;28;20065;-80
2022/03/05 15:51:51;;;;;;;1.88;1.30;;;8.50;64.30;;;;;;20886009;28;20120;-76
2022/03/05 16:01:51;;;;;;;2.88;1.17;;;8.60;64.00;;;;;;20872539;28;20045;-75
2022/03/05 16:11:52;;;;;;;2.80;1.10;;;8.80;63.60;;;;;;20878978;28;20036;-76
2022/03/05 16:21:52;;;;;;;3.05;1.40;;;9.00;63.30;;;;;;20831951;28;20093;-74
2022/03/05 16:31:53;;;;;;;2.38;1.15;;;9.20;62.80;;;;;;20901766;28;20397;-71
2022/03/05 16:41:54;;;;;;;1.70;1.10;;;9.30;62.30;;;;;;20894562;28;20131;-76
2022/03/05 16:51:54;;;;;;;2.50;1.38;;;9.30;62.60;;;;;;20938512;28;20056;-75
2022/03/05 17:01:56;;;;;;;2.35;1.25;;;9.20;61.90;;;;;;20990193;28;20047;-78
2022/03/05 17:11:57;;;;;;;1.70;1.02;;;9.10;62.20;;;;;;20957783;28;20037;-78
2022/03/05 17:21:58;;;;;;;2.50;0.88;;;9.00;62.50;;;;;;20796271;28;20458;-79
2022/03/05 17:31:58;;;;;;;2.83;1.08;;;8.90;62.80;;;;;;20776638;28;20075;-79
2022/03/05 17:41:59;;;;;;;2.15;1.20;;;8.80;63.10;;;;;;20803358;28;20043;-76
2022/03/05 17:52:00;;;;;;;2.10;1.20;;;8.70;63.40;;;;;;20804095;28;20033;-82
2022/03/05 18:02:02;;;;;;;2.22;1.40;;;8.60;63.50;;;;;;20778689;28;20566;-79
2022/03/05 18:12:02;;;;;;;2.67;1.50;;;8.60;63.70;;;;;;20796233;28;20036;-85
2022/03/05 18:22:04;;;;;;;1.85;1.30;;;8.50;63.90;;;;;;20764153;28;20034;-83
2022/03/05 18:32:12;;;;;;;2.90;1.70;;;8.50;64.10;;;;;;20794468;28;20040;-84
2022/03/05 18:42:13;;;;;;;2.90;1.75;;;8.50;64.30;;;;;;20817687;28;20032;-83
2022/03/05 18:52:13;;;;;;;5.83;1.50;;;8.40;64.30;;;;;;20905462;28;20029;-81
2022/03/05 19:02:14;;;;;;;2.53;1.60;;;8.40;64.30;;;;;;20886891;28;20778;-81
2022/03/05 19:12:15;;;;;;;2.90;1.60;;;8.40;64.40;;;;;;20886949;28;20384;-80
2022/03/05 19:22:15;;;;;;;2.03;1.33;;;8.40;64.50;;;;;;20865775;28;20295;-80
2022/03/05 19:32:16;;;;;;;3.33;1.80;;;8.40;64.60;;;;;;20884197;28;20036;-80
2022/03/05 19:42:17;;;;;;;4.10;1.70;;;8.30;64.70;;;;;;20898351;28;20071;-80
2022/03/05 19:52:18;;;;;;;3.15;1.70;;;8.40;64.70;;;;;;20850296;28;20056;-80
2022/03/05 20:02:18;;;;;;;5.03;1.65;;;8.30;64.70;;;;;;20866156;28;20123;-80
2022/03/05 20:12:19;;;;;;;2.63;1.40;;;8.30;64.80;;;;;;20847114;28;20098;-80
2022/03/05 20:22:20;;;;;;;4.15;1.95;;;8.30;64.80;;;;;;20828165;28;20048;-80
2022/03/05 20:32:21;;;;;;;3.05;1.40;;;8.30;64.80;;;;;;20859126;28;20290;-79
2022/03/05 20:42:22;;;;;;;3.85;1.85;;;8.30;64.80;;;;;;20861181;28;20033;-79
2022/03/05 20:52:22;;;;;;;3.38;1.45;;;8.30;64.80;;;;;;20893568;28;20036;-79
2022/03/05 21:02:23;;;;;;;1.65;1.17;;;8.30;64.80;;;;;;20856708;28;20044;-80
2022/03/05 21:12:24;;;;;;;2.30;1.48;;;8.30;64.90;;;;;;20875372;28;20099;-79
2022/03/05 21:22:24;;;;;;;3.08;1.42;;;8.30;64.90;;;;;;20873375;28;20076;-79
2022/03/05 21:32:25;;;;;;;4.18;1.60;;;8.30;64.90;;;;;;20857545;28;20028;-78
2022/03/05 21:42:25;;;;;;;4.00;1.60;;;8.30;65.00;;;;;;20891096;28;20425;-81
2022/03/05 21:52:26;;;;;;;2.00;1.27;;;8.40;65.10;;;;;;20839382;28;20473;-78
2022/03/05 22:02:27;;;;;;;3.35;1.60;;;8.30;65.00;;;;;;20906923;28;20309;-78
2022/03/05 22:12:27;;;;;;;3.20;1.52;;;8.30;65.70;;;;;;20856613;28;20056;-78
2022/03/05 22:22:28;;;;;;;2.80;1.13;;;8.40;65.20;;;;;;20856248;28;20404;-77
2022/03/05 22:32:28;;;;;;;3.20;1.55;;;8.30;65.20;;;;;;20880958;28;20469;-77
2022/03/05 22:42:29;;;;;;;2.65;1.52;;;8.30;65.20;;;;;;20872120;28;20048;-80
2022/03/05 22:52:30;;;;;;;2.40;1.15;;;8.30;65.20;;;;;;20888541;28;20537;-80
2022/03/05 23:12:49;;;;;;;2.33;1.25;;;8.30;65.30;;;;;;20905179;28;20275;-80
2022/03/05 23:22:49;;;;;;;2.53;1.30;;;8.30;65.30;;;;;;20867919;28;20055;-80
2022/03/05 23:32:50;;;;;;;1.92;1.17;;;8.30;65.30;;;;;;20867830;28;20029;-77
2022/03/05 23:42:51;;;;;;;2.80;1.38;;;8.30;65.30;;;;;;20882009;28;20065;-77
2022/03/05 23:52:54;;;;;;;2.42;0.82;;;8.30;65.40;;;;;;20899033;28;20112;-77
